Time;durP1;ratioP1;P1;durP2;ratioP2;P2;SDS_P1;SDS_P2;PMS_P1;PMS_P2;Temp;Humidity;BMP_temperature;BMP_pressure;BME280_temperature;BME280_humidity;BME280_pressure;Samples;Min_cycle;Max_cycle;Signal;HPM_P1;HPM_P2
2022/04/30 00:00:29;;;;;;;8.35;2.90;;;;;;;8.14;72.61;102005.19;6001348;28;20110;-68
2022/04/30 00:03:27;;;;;;;10.48;3.00;;;;;;;8.16;72.72;102000.66;6007355;28;20073;-66
2022/04/30 00:06:23;;;;;;;8.82;3.05;;;;;;;8.01;73.24;102001.66;6002599;28;20034;-68
2022/04/30 00:09:18;;;;;;;5.80;2.67;;;;;;;7.95;73.63;101993.25;6002920;28;20042;-67
2022/04/30 00:12:15;;;;;;;9.80;3.13;;;;;;;7.96;73.21;101997.59;6004783;28;20478;-66
2022/04/30 00:15:10;;;;;;;7.78;3.10;;;;;;;7.85;73.55;101995.66;6009780;28;20030;-68
2022/04/30 00:18:05;;;;;;;11.63;3.17;;;;;;;7.73;74.08;101996.41;6002527;28;20090;-67
2022/04/30 00:21:01;;;;;;;6.65;3.17;;;;;;;7.73;74.27;101996.41;6000458;28;20673;-67
2022/04/30 00:23:56;;;;;;;11.77;3.30;;;;;;;7.72;74.32;101990.28;6013277;28;20117;-66
2022/04/30 00:26:52;;;;;;;7.53;3.00;;;;;;;7.65;74.12;101988.97;6010608;28;20046;-67
2022/04/30 00:29:47;;;;;;;6.93;3.33;;;;;;;7.70;74.11;101996.59;6003505;28;20409;-68
2022/04/30 00:32:43;;;;;;;5.97;2.73;;;;;;;7.79;74.74;101978.41;6004772;28;20058;-69
2022/04/30 00:35:39;;;;;;;6.47;3.03;;;;;;;7.63;74.58;101988.22;6010120;28;20214;-67
2022/04/30 00:38:34;;;;;;;8.63;2.88;;;;;;;7.77;74.75;101997.94;6011676;28;20113;-66
2022/04/30 00:41:32;;;;;;;13.40;3.00;;;;;;;7.73;74.68;101988.50;5990837;28;20047;-67
2022/04/30 00:44:27;;;;;;;8.20;2.83;;;;;;;7.68;74.45;101991.44;5999656;28;20113;-68
2022/04/30 00:47:24;;;;;;;6.60;2.75;;;;;;;7.69;74.21;101995.75;6002225;28;20368;-66
2022/04/30 00:50:21;;;;;;;9.35;3.17;;;;;;;7.58;74.65;101992.09;6007859;28;20051;-66
2022/04/30 00:53:19;;;;;;;7.53;3.30;;;;;;;7.51;75.20;101996.03;6002250;28;20039;-66
2022/04/30 00:56:21;;;;;;;11.60;3.63;;;;;;;7.41;75.88;101995.78;6023236;28;20042;-69
2022/04/30 00:59:18;;;;;;;13.80;3.70;;;;;;;7.48;76.24;101990.94;6002820;28;20446;-67
2022/04/30 01:02:13;;;;;;;8.30;3.70;;;;;;;7.35;76.58;101985.59;6008458;28;20034;-67
2022/04/30 01:05:10;;;;;;;10.00;3.83;;;;;;;7.36;75.94;101979.38;5998579;28;20038;-68
2022/04/30 01:08:05;;;;;;;10.85;3.20;;;;;;;7.32;76.08;101974.38;6007763;28;20061;-66
2022/04/30 01:11:02;;;;;;;11.63;3.17;;;;;;;7.40;76.85;101980.03;6015182;28;20396;-67
2022/04/30 01:13:58;;;;;;;7.13;3.40;;;;;;;7.50;76.06;101986.44;6006053;28;20041;-66
2022/04/30 01:16:57;;;;;;;8.75;3.40;;;;;;;7.41;76.31;101981.72;6016349;28;20039;-68
2022/04/30 01:19:52;;;;;;;9.40;3.47;;;;;;;7.54;75.55;101985.28;6005976;28;20470;-67
2022/04/30 01:23:04;;;;;;;6.03;3.25;;;;;;;7.42;75.78;101976.34;6008612;28;20038;-68
2022/04/30 01:26:03;;;;;;;7.40;3.25;;;;;;;7.36;76.30;101983.81;6005492;28;20082;-67
2022/04/30 01:28:58;;;;;;;9.02;3.30;;;;;;;7.48;75.85;101981.25;6016832;28;20442;-67
2022/04/30 01:38:23;;;;;;;7.45;3.35;;;;;;;7.29;77.19;101985.09;6012369;28;20027;-66
2022/04/30 01:41:19;;;;;;;8.43;3.35;;;;;;;7.38;77.08;101984.56;6013897;28;20034;-67
2022/04/30 01:44:14;;;;;;;9.17;3.60;;;;;;;7.41;77.21;101979.09;6005646;28;20038;-68
2022/04/30 01:47:10;;;;;;;11.50;3.25;;;;;;;7.34;77.39;101972.50;6020962;28;20045;-67
2022/04/30 01:50:06;;;;;;;5.53;2.77;;;;;;;7.53;76.45;101983.59;6007905;28;20053;-66
2022/04/30 01:53:01;;;;;;;6.80;2.90;;;;;;;7.32;76.51;101969.09;6005041;28;20599;-68
2022/04/30 01:55:56;;;;;;;10.40;3.60;;;;;;;7.46;76.20;101961.19;6005314;28;20038;-68
2022/04/30 01:58:52;;;;;;;8.53;3.20;;;;;;;7.23;77.76;101959.13;6006389;28;20057;-68
2022/04/30 02:01:48;;;;;;;7.40;3.30;;;;;;;7.26;78.05;101964.19;6011113;28;20039;-67
2022/04/30 02:04:43;;;;;;;9.63;3.08;;;;;;;7.31;77.81;101954.22;6012280;28;20038;-68
2022/04/30 02:07:41;;;;;;;9.50;3.27;;;;;;;7.26;78.29;101953.63;6019778;28;20487;-67
2022/04/30 02:10:38;;;;;;;8.73;2.90;;;;;;;7.29;78.11;101946.38;6008572;28;20349;-68
2022/04/30 02:13:34;;;;;;;12.75;3.17;;;;;;;7.37;78.14;101952.03;6004243;28;20444;-67
2022/04/30 02:16:30;;;;;;;6.28;2.78;;;;;;;7.57;77.85;101954.28;6007932;28;20043;-67
2022/04/30 02:19:28;;;;;;;7.20;3.28;;;;;;;7.42;77.24;101949.94;6004274;28;20034;-67
2022/04/30 02:22:25;;;;;;;11.68;3.13;;;;;;;7.39;77.61;101946.69;6004334;28;20067;-68
2022/04/30 02:25:21;;;;;;;7.57;3.05;;;;;;;7.24;78.38;101935.28;6004459;28;20394;-65
2022/04/30 02:28:17;;;;;;;8.32;3.30;;;;;;;7.33;77.98;101929.44;6001193;28;20110;-68
2022/04/30 02:31:25;;;;;;;8.50;3.08;;;;;;;7.13;78.32;101933.28;6013808;28;20049;-67
2022/04/30 02:34:21;;;;;;;9.98;3.10;;;;;;;6.99;78.80;101935.91;6004196;28;20074;-67
2022/04/30 02:37:16;;;;;;;7.43;2.63;;;;;;;6.91;79.43;101934.69;6013024;28;20038;-67
2022/04/30 02:40:13;;;;;;;11.37;3.70;;;;;;;6.77;79.99;101922.34;6003369;28;20031;-67
2022/04/30 02:43:13;;;;;;;9.57;3.35;;;;;;;6.73;80.36;101930.53;6011754;28;20083;-68
2022/04/30 02:46:09;;;;;;;12.02;2.97;;;;;;;6.83;80.69;101927.25;6003760;28;20038;-66
2022/04/30 02:49:04;;;;;;;8.77;3.53;;;;;;;6.69;80.22;101924.56;6003258;28;20043;-67
2022/04/30 02:52:00;;;;;;;8.57;3.23;;;;;;;6.52;80.62;101930.03;6007170;28;20570;-67
2022/04/30 02:54:55;;;;;;;7.43;3.42;;;;;;;6.56;81.01;101928.88;6003469;28;20267;-68
2022/04/30 03:01:08;;;;;;;9.00;2.80;;;;;;;6.43;81.44;101914.75;6001387;28;20027;-69
2022/04/30 03:04:03;;;;;;;7.00;3.00;;;;;;;6.43;82.33;101914.75;6016273;28;20050;-66
2022/04/30 03:06:59;;;;;;;9.45;3.28;;;;;;;6.59;81.82;101900.56;6003286;28;20023;-67
2022/04/30 03:09:54;;;;;;;8.70;3.15;;;;;;;6.46;81.65;101904.03;6003247;28;20502;-68
2022/04/30 03:12:49;;;;;;;7.87;3.50;;;;;;;6.55;81.40;101914.00;6013181;28;20045;-67
2022/04/30 03:15:46;;;;;;;9.13;3.80;;;;;;;6.51;82.19;101904.59;6004114;28;20022;-66
2022/04/30 03:21:57;;;;;;;11.02;3.20;;;;;;;6.37;82.22;101907.19;6003265;28;20027;-66
2022/04/30 03:24:52;;;;;;;6.13;2.83;;;;;;;6.30;83.26;101908.50;6002577;28;20039;-68
2022/04/30 03:27:48;;;;;;;8.10;3.30;;;;;;;6.29;82.99;101902.38;6002950;28;20521;-66
2022/04/30 03:30:43;;;;;;;11.68;3.83;;;;;;;6.25;83.20;101894.75;6002130;28;20036;-67
2022/04/30 03:33:39;;;;;;;8.50;3.07;;;;;;;6.22;83.88;101905.47;6003389;28;20503;-67
2022/04/30 03:36:35;;;;;;;8.25;3.42;;;;;;;6.50;82.89;101897.63;6002696;28;20043;-67
2022/04/30 03:39:30;;;;;;;11.23;3.63;;;;;;;6.19;83.04;101900.38;6002475;28;20026;-66
2022/04/30 03:42:26;;;;;;;14.07;3.20;;;;;;;6.15;82.75;101888.31;6002274;28;20394;-68
2022/04/30 03:45:21;;;;;;;8.27;3.10;;;;;;;6.12;83.57;101899.88;6002812;28;20041;-68
2022/04/30 03:48:16;;;;;;;11.50;3.50;;;;;;;5.90;83.88;101902.88;6004926;28;20035;-66
2022/04/30 03:51:12;;;;;;;6.67;3.43;;;;;;;5.82;84.67;101896.31;6001979;28;20038;-67
2022/04/30 03:54:07;;;;;;;8.57;3.80;;;;;;;5.74;84.77;101902.00;5997115;28;20112;-68
2022/04/30 03:57:03;;;;;;;8.40;3.30;;;;;;;5.60;85.47;101896.66;6008157;28;20047;-68
2022/04/30 03:59:58;;;;;;;10.98;3.80;;;;;;;5.57;86.16;101906.53;6002317;28;20027;-68
2022/04/30 04:02:54;;;;;;;10.23;3.47;;;;;;;5.71;85.60;101909.22;6008702;28;20038;-67
2022/04/30 04:05:49;;;;;;;8.20;3.38;;;;;;;5.58;86.54;101906.44;6001106;28;20034;-65
2022/04/30 04:08:50;;;;;;;10.87;3.80;;;;;;;5.49;86.55;101914.81;6005329;28;20038;-67
2022/04/30 04:11:45;;;;;;;13.60;3.72;;;;;;;5.58;85.70;101919.59;6004368;28;20274;-66
2022/04/30 04:17:54;;;;;;;;;;;;;;;5.68;86.24;101918.13;6008462;28;20589;-66
2022/04/30 04:20:50;;;;;;;6.82;3.25;;;;;;;5.60;86.44;101917.72;6013925;28;19925;-66
2022/04/30 04:27:01;;;;;;;6.65;2.88;;;;;;;5.58;86.99;101909.06;6002114;28;20034;-67
2022/04/30 04:29:56;;;;;;;7.25;3.60;;;;;;;5.59;86.96;101907.28;6006098;28;20538;-65
2022/04/30 04:32:53;;;;;;;7.00;3.27;;;;;;;5.64;86.65;101902.63;6001530;28;20035;-68
2022/04/30 04:35:48;;;;;;;9.77;3.53;;;;;;;5.82;85.74;101901.56;6012526;28;20784;-68
2022/04/30 04:38:44;;;;;;;7.27;3.40;;;;;;;5.78;86.46;101900.91;6007294;28;20043;-67
2022/04/30 04:41:42;;;;;;;9.65;3.90;;;;;;;5.75;86.49;101910.75;6006034;28;20030;-66
2022/04/30 04:44:37;;;;;;;7.90;3.50;;;;;;;5.67;86.67;101916.47;6006787;28;20065;-68
2022/04/30 04:47:34;;;;;;;11.63;3.63;;;;;;;5.69;86.42;101919.84;6011118;28;20046;-65
2022/04/30 04:50:29;;;;;;;10.73;3.50;;;;;;;5.81;86.15;101916.53;6010639;28;20034;-65
2022/04/30 04:53:25;;;;;;;6.90;3.10;;;;;;;5.90;86.30;101921.28;6006650;28;20027;-67
2022/04/30 04:56:20;;;;;;;7.32;3.15;;;;;;;6.01;86.28;101918.06;6005997;28;20282;-66
2022/04/30 04:59:16;;;;;;;7.83;3.00;;;;;;;6.13;85.77;101927.06;6006600;28;20154;-66
2022/04/30 05:02:11;;;;;;;8.50;3.17;;;;;;;6.18;85.64;101915.31;6005347;28;20046;-68
2022/04/30 05:05:07;;;;;;;7.75;2.97;;;;;;;6.35;84.69;101920.47;6006493;28;20125;-66
2022/04/30 05:08:02;;;;;;;13.15;3.22;;;;;;;6.32;84.18;101917.16;6003391;28;20367;-66
2022/04/30 05:10:58;;;;;;;6.03;3.30;;;;;;;6.56;83.90;101926.25;6005716;28;20478;-65
2022/04/30 05:13:53;;;;;;;8.53;3.30;;;;;;;6.62;83.00;101931.16;6006121;28;20267;-67
2022/04/30 05:16:48;;;;;;;6.47;2.87;;;;;;;6.57;83.68;101920.91;6005416;28;20061;-68
2022/04/30 05:19:43;;;;;;;6.20;2.70;;;;;;;6.63;82.79;101927.59;6006348;28;20027;-66
2022/04/30 05:22:39;;;;;;;11.40;3.03;;;;;;;6.58;82.91;101934.91;6010230;28;20788;-67
2022/04/30 05:25:35;;;;;;;9.77;2.97;;;;;;;6.64;82.97;101929.28;6007011;28;20035;-67
2022/04/30 05:28:30;;;;;;;9.13;3.08;;;;;;;6.76;82.60;101938.25;6005859;28;20046;-67
2022/04/30 05:31:26;;;;;;;9.60;3.30;;;;;;;6.82;82.12;101946.63;6004862;28;20089;-68
2022/04/30 05:34:21;;;;;;;6.18;2.97;;;;;;;6.89;81.48;101934.78;6005714;28;20043;-66
2022/04/30 05:37:16;;;;;;;7.30;2.80;;;;;;;6.85;82.65;101930.63;6005735;28;20089;-67
2022/04/30 05:40:12;;;;;;;6.53;2.67;;;;;;;6.99;82.46;101935.91;6005006;28;20035;-66
2022/04/30 05:43:07;;;;;;;6.27;3.20;;;;;;;6.93;81.17;101933.66;6005565;28;20053;-68
2022/04/30 05:46:02;;;;;;;10.23;3.17;;;;;;;7.01;81.97;101941.94;6008301;28;20050;-66
2022/04/30 05:48:58;;;;;;;7.30;2.93;;;;;;;7.15;81.40;101931.41;6011402;28;20650;-67
2022/04/30 05:51:53;;;;;;;11.43;4.00;;;;;;;7.24;81.12;101926.50;6012371;28;20040;-66
2022/04/30 05:54:48;;;;;;;8.53;2.83;;;;;;;7.29;80.12;101929.69;6005377;28;20034;-68
2022/04/30 05:57:43;;;;;;;10.47;3.70;;;;;;;7.39;80.35;101930.84;6012567;28;20038;-66
2022/04/30 06:00:39;;;;;;;9.67;3.83;;;;;;;7.79;79.51;101935.31;6007585;28;20039;-66
2022/04/30 06:03:34;;;;;;;9.23;3.23;;;;;;;8.05;78.17;101944.16;6006620;28;20041;-65
2022/04/30 06:06:29;;;;;;;9.20;2.93;;;;;;;7.93;78.30;101943.19;6008937;28;20397;-68
2022/04/30 06:09:25;;;;;;;9.87;3.30;;;;;;;8.10;77.69;101936.81;6004727;28;20289;-66
2022/04/30 06:12:21;;;;;;;9.10;3.30;;;;;;;8.19;76.28;101942.34;6005086;28;20066;-69
2022/04/30 06:15:16;;;;;;;12.27;3.40;;;;;;;8.28;76.38;101941.78;6004386;28;20049;-67
2022/04/30 06:18:11;;;;;;;11.13;3.05;;;;;;;8.26;76.70;101946.25;6005962;28;20042;-67
2022/04/30 06:21:07;;;;;;;11.80;3.00;;;;;;;8.32;76.09;101945.03;6005861;28;20026;-67
2022/04/30 06:24:02;;;;;;;7.87;2.90;;;;;;;8.24;76.46;101945.50;6004708;28;20289;-65
2022/04/30 06:26:57;;;;;;;11.85;3.15;;;;;;;8.21;76.75;101948.34;6003798;28;20293;-68
2022/04/30 06:29:53;;;;;;;8.77;2.63;;;;;;;8.25;76.64;101946.38;6003616;28;20031;-65
2022/04/30 06:32:48;;;;;;;7.60;2.90;;;;;;;8.40;76.13;101944.56;6009624;28;20089;-68
2022/04/30 06:35:44;;;;;;;10.33;3.67;;;;;;;8.10;76.50;101950.84;6012553;28;20030;-67
2022/04/30 06:38:39;;;;;;;9.52;2.95;;;;;;;7.93;77.94;101951.09;6004025;28;20030;-66
2022/04/30 06:41:34;;;;;;;11.53;2.87;;;;;;;7.93;77.77;101948.47;6012796;28;20533;-67
2022/04/30 06:44:30;;;;;;;12.90;3.17;;;;;;;7.88;79.43;101957.63;6005569;28;20050;-68
2022/04/30 06:47:25;;;;;;;11.57;3.20;;;;;;;7.68;81.26;101957.09;6004242;28;20034;-65
2022/04/30 06:50:20;;;;;;;8.05;3.10;;;;;;;7.73;82.12;101948.88;6003027;28;20375;-67
2022/04/30 06:59:45;;;;;;;6.82;2.95;;;;;;;7.52;82.76;101953.72;6002537;28;20039;-67
2022/04/30 07:02:41;;;;;;;9.52;3.22;;;;;;;7.56;82.92;101952.59;6004757;28;20039;-67
2022/04/30 07:05:36;;;;;;;9.05;2.88;;;;;;;7.51;82.69;101949.38;6003632;28;20446;-66
2022/04/30 07:08:33;;;;;;;8.40;3.07;;;;;;;7.60;83.41;101942.69;5999079;28;20039;-67
2022/04/30 07:11:28;;;;;;;7.32;2.95;;;;;;;7.54;83.21;101936.00;6002618;28;20027;-66
2022/04/30 07:14:23;;;;;;;12.17;3.10;;;;;;;7.48;82.05;101938.16;6003508;28;20062;-67
2022/04/30 07:17:19;;;;;;;8.37;2.67;;;;;;;7.69;83.88;101939.47;6001960;28;20653;-67
2022/04/30 07:20:14;;;;;;;10.47;3.00;;;;;;;7.74;82.89;101945.31;6002351;28;20026;-66
2022/04/30 07:23:10;;;;;;;15.07;3.83;;;;;;;7.82;83.47;101934.25;6002215;28;20173;-67
2022/04/30 07:26:05;;;;;;;7.72;2.88;;;;;;;7.78;83.95;101937.09;6002821;28;20267;-67
2022/04/30 07:29:00;;;;;;;8.63;2.70;;;;;;;7.68;84.26;101943.91;6003086;28;20077;-67
2022/04/30 07:31:55;;;;;;;10.03;3.23;;;;;;;7.66;85.60;101944.94;6002379;28;20082;-67
2022/04/30 07:34:51;;;;;;;10.60;3.50;;;;;;;7.67;86.31;101938.72;6000660;28;20069;-68
2022/04/30 07:37:46;;;;;;;10.50;3.03;;;;;;;7.80;87.04;101939.63;6000633;28;20026;-68
2022/04/30 07:40:41;;;;;;;8.93;2.70;;;;;;;7.86;86.64;101944.50;5999737;28;20494;-68
2022/04/30 07:43:37;;;;;;;9.97;2.87;;;;;;;7.91;86.96;101947.69;6000505;28;20037;-66
2022/04/30 07:46:32;;;;;;;9.27;3.30;;;;;;;7.95;87.15;101938.66;6000185;28;20034;-66
2022/04/30 07:49:27;;;;;;;9.87;3.60;;;;;;;8.06;85.95;101940.59;6001359;28;20062;-68
2022/04/30 07:52:22;;;;;;;6.10;3.17;;;;;;;7.98;83.93;101934.97;6006465;28;20050;-67
2022/04/30 07:55:18;;;;;;;8.43;3.30;;;;;;;7.98;83.30;101927.88;6013241;28;20030;-67
2022/04/30 07:58:13;;;;;;;5.53;2.77;;;;;;;8.28;83.73;101931.19;6002633;28;20045;-66
2022/04/30 08:01:08;;;;;;;9.67;3.03;;;;;;;8.32;83.60;101930.03;6001777;28;20470;-66
2022/04/30 08:04:04;;;;;;;9.50;2.40;;;;;;;8.52;83.01;101928.72;6003868;28;20070;-66
2022/04/30 08:06:59;;;;;;;7.57;3.10;;;;;;;8.92;82.06;101932.97;5998555;28;20106;-68
2022/04/30 08:09:55;;;;;;;6.90;2.67;;;;;;;9.10;80.68;101928.22;5996439;28;20038;-68
2022/04/30 08:12:54;;;;;;;6.90;2.20;;;;;;;9.27;79.90;101929.66;6006930;28;20042;-67
2022/04/30 08:15:49;;;;;;;8.32;2.78;;;;;;;9.39;78.95;101934.13;6007268;28;20039;-67
2022/04/30 08:18:44;;;;;;;5.07;2.40;;;;;;;9.69;77.36;101937.22;6007237;28;20042;-67
2022/04/30 08:21:40;;;;;;;7.27;2.33;;;;;;;10.25;75.46;101922.50;6006299;28;20156;-67
2022/04/30 08:24:35;;;;;;;9.67;2.60;;;;;;;10.38;75.60;101917.16;6005505;28;20290;-68
2022/04/30 08:27:30;;;;;;;6.13;2.17;;;;;;;10.58;71.96;101912.03;6007275;28;20800;-68
2022/04/30 08:30:26;;;;;;;6.47;2.53;;;;;;;10.33;72.26;101920.13;6011248;28;20622;-67
2022/04/30 08:33:21;;;;;;;5.33;2.27;;;;;;;10.26;70.71;101929.50;6008317;28;20038;-66
2022/04/30 08:36:18;;;;;;;7.07;2.43;;;;;;;10.00;72.86;101927.91;6009882;28;20080;-66
2022/04/30 08:39:13;;;;;;;6.63;2.47;;;;;;;9.91;73.69;101925.94;6008022;28;20046;-68
2022/04/30 08:42:08;;;;;;;8.07;2.23;;;;;;;10.23;73.81;101927.09;6006368;28;20030;-68
2022/04/30 08:45:07;;;;;;;9.30;2.50;;;;;;;10.49;72.25;101923.31;6006447;28;20405;-66
2022/04/30 08:48:06;;;;;;;6.13;2.15;;;;;;;10.70;71.22;101919.06;6007259;28;20765;-68
2022/04/30 08:51:02;;;;;;;7.63;1.80;;;;;;;10.89;68.68;101923.78;6009326;28;20030;-66
2022/04/30 08:53:58;;;;;;;8.82;2.20;;;;;;;10.95;67.90;101917.16;6015940;28;20042;-67
2022/04/30 08:56:56;;;;;;;7.60;1.95;;;;;;;10.92;66.28;101904.13;6018151;28;20042;-67
2022/04/30 08:59:52;;;;;;;7.55;2.00;;;;;;;11.10;68.46;101908.84;6013103;28;20039;-66
2022/04/30 09:02:58;;;;;;;8.03;2.03;;;;;;;11.26;66.79;101911.13;6006776;28;20039;-67
2022/04/30 09:05:58;;;;;;;4.47;1.70;;;;;;;11.53;64.64;101914.25;6006205;28;20073;-67
2022/04/30 09:08:53;;;;;;;5.50;1.80;;;;;;;11.49;63.67;101902.19;6006222;28;20065;-67
2022/04/30 09:11:49;;;;;;;8.40;2.33;;;;;;;12.07;64.20;101905.44;6004324;28;20367;-67
2022/04/30 09:14:44;;;;;;;6.75;1.92;;;;;;;11.70;64.23;101910.28;6005284;28;20347;-68
2022/04/30 09:17:40;;;;;;;3.67;1.85;;;;;;;12.07;63.32;101897.47;6015992;28;20504;-68
2022/04/30 09:20:53;;;;;;;6.50;1.67;;;;;;;12.17;63.35;101901.09;6005727;28;20035;-67
2022/04/30 09:23:49;;;;;;;8.10;2.13;;;;;;;12.03;62.68;101901.38;6014531;28;20030;-68
2022/04/30 09:26:45;;;;;;;3.17;1.38;;;;;;;12.67;60.44;101891.50;6005003;28;20098;-68
2022/04/30 09:29:40;;;;;;;3.67;1.53;;;;;;;12.38;57.10;101891.31;6005505;28;20046;-68
2022/04/30 09:32:35;;;;;;;4.47;1.33;;;;;;;12.85;56.76;101893.47;6005121;28;20149;-67
2022/04/30 09:38:47;;;;;;;3.45;1.58;;;;;;;12.98;56.85;101883.44;6005648;28;20066;-68
2022/04/30 09:41:42;;;;;;;6.28;1.90;;;;;;;12.86;58.46;101879.16;6004985;28;20035;-66
2022/04/30 09:44:37;;;;;;;4.68;1.65;;;;;;;12.87;58.00;101880.00;6005060;28;20041;-67
2022/04/30 09:47:34;;;;;;;4.93;1.60;;;;;;;13.30;56.32;101869.16;6003646;28;20039;-67
2022/04/30 09:53:58;;;;;;;7.45;2.10;;;;;;;13.28;55.99;101868.44;6017583;28;20090;-66
2022/04/30 09:56:55;;;;;;;6.90;1.83;;;;;;;13.07;56.33;101879.16;6004934;28;20086;-67
2022/04/30 09:59:55;;;;;;;4.95;1.52;;;;;;;13.17;56.00;101869.38;6016249;28;20050;-68
2022/04/30 10:02:53;;;;;;;3.92;1.60;;;;;;;13.15;54.74;101875.81;6001821;28;20035;-67
2022/04/30 10:05:49;;;;;;;4.90;1.70;;;;;;;13.30;54.96;101871.81;6003663;28;20139;-66
2022/04/30 10:08:46;;;;;;;6.85;2.10;;;;;;;13.70;53.69;101877.94;6006066;28;20043;-66
2022/04/30 10:11:47;;;;;;;4.38;1.95;;;;;;;13.64;54.74;101883.84;6009581;28;20046;-68
2022/04/30 10:14:50;;;;;;;6.85;1.63;;;;;;;13.83;53.62;101881.22;6011384;28;20486;-67
2022/04/30 10:17:48;;;;;;;2.88;1.33;;;;;;;14.26;53.83;101870.97;6004754;28;20039;-67
2022/04/30 10:20:52;;;;;;;4.50;1.70;;;;;;;13.53;54.38;101884.78;6003240;28;20066;-66
2022/04/30 10:23:47;;;;;;;7.90;2.10;;;;;;;14.00;53.52;101879.66;5995378;28;20049;-67
2022/04/30 10:26:58;;;;;;;6.00;2.10;;;;;;;14.01;55.44;101874.19;6010639;28;20042;-66
2022/04/30 10:29:58;;;;;;;6.68;2.50;;;;;;;14.46;53.98;101876.34;6013328;28;20022;-67
2022/04/30 10:32:56;;;;;;;6.57;2.20;;;;;;;14.65;52.52;101871.78;5966960;28;20059;-67
2022/04/30 10:36:03;;;;;;;4.18;2.33;;;;;;;14.11;53.91;101872.38;5975109;28;20069;-67
2022/04/30 10:39:02;;;;;;;4.63;2.13;;;;;;;13.95;57.18;101876.56;5981043;28;20040;-66
2022/04/30 10:41:57;;;;;;;7.72;2.72;;;;;;;14.34;55.68;101867.63;5979544;28;20036;-67
2022/04/30 10:44:56;;;;;;;5.07;2.50;;;;;;;14.12;55.71;101867.88;5972451;28;20043;-67
2022/04/30 10:47:52;;;;;;;6.65;2.63;;;;;;;13.82;57.61;101878.66;5979182;28;20027;-66
2022/04/30 10:51:02;;;;;;;6.93;2.35;;;;;;;13.51;58.63;101867.22;5980161;28;20035;-68
2022/04/30 10:53:58;;;;;;;9.00;3.00;;;;;;;13.31;58.24;101870.84;5980709;28;20047;-68
2022/04/30 10:56:59;;;;;;;6.85;2.58;;;;;;;13.51;58.36;101867.22;5980497;28;20103;-66
2022/04/30 11:00:01;;;;;;;7.60;2.55;;;;;;;13.56;57.95;101870.34;5980216;28;20039;-66
2022/04/30 11:03:17;;;;;;;6.13;2.63;;;;;;;13.25;58.29;101876.69;5980143;28;20513;-68
2022/04/30 11:06:19;;;;;;;6.72;2.35;;;;;;;13.08;57.99;101872.84;5970171;29;20071;-68
2022/04/30 11:09:14;;;;;;;10.00;2.63;;;;;;;13.38;57.68;101861.31;5979487;28;20042;-67
2022/04/30 11:12:18;;;;;;;6.43;2.80;;;;;;;13.33;57.38;101871.53;5996122;28;20395;-69
2022/04/30 11:15:14;;;;;;;7.80;2.38;;;;;;;13.38;56.56;101861.31;5981279;28;20062;-68
2022/04/30 11:18:10;;;;;;;5.90;2.42;;;;;;;13.56;56.16;101859.69;5981453;28;20435;-68
2022/04/30 11:21:05;;;;;;;5.05;2.47;;;;;;;13.77;56.44;101847.09;5981030;28;20065;-67
2022/04/30 11:24:01;;;;;;;7.20;2.70;;;;;;;14.37;53.40;101840.66;5990850;28;20085;-69
2022/04/30 11:27:03;;;;;;;4.75;2.30;;;;;;;14.49;53.56;101844.00;5981739;28;20030;-68
2022/04/30 11:29:58;;;;;;;6.88;2.67;;;;;;;14.46;52.96;101839.78;5979989;28;20114;-69
2022/04/30 11:32:53;;;;;;;5.25;2.40;;;;;;;14.40;51.18;101839.53;5977716;28;20039;-67
2022/04/30 11:35:55;;;;;;;7.17;1.87;;;;;;;13.97;52.11;101842.63;5978038;28;20050;-69
2022/04/30 11:38:54;;;;;;;5.72;2.35;;;;;;;13.69;52.48;101849.63;5978363;28;20102;-66
2022/04/30 11:41:51;;;;;;;4.78;1.90;;;;;;;13.71;51.74;101836.97;5978173;28;20031;-68
2022/04/30 11:44:46;;;;;;;5.18;2.28;;;;;;;13.80;50.98;101836.16;5978830;28;20068;-68
2022/04/30 11:47:48;;;;;;;6.43;2.17;;;;;;;14.40;51.68;101834.19;5979232;28;20039;-69
2022/04/30 11:50:47;;;;;;;6.32;1.95;;;;;;;14.46;49.75;101833.63;5978689;28;20043;-67
2022/04/30 11:53:42;;;;;;;4.53;1.95;;;;;;;14.52;48.88;101825.88;5979587;28;20042;-67
2022/04/30 11:56:38;;;;;;;6.22;1.70;;;;;;;14.39;48.62;101827.16;5979328;28;20109;-68
2022/04/30 11:59:39;;;;;;;4.18;1.70;;;;;;;14.28;49.95;101831.66;5978637;28;20035;-68
2022/04/30 12:02:39;;;;;;;5.78;1.77;;;;;;;14.42;48.13;101821.53;5978500;28;20039;-67
2022/04/30 12:05:34;;;;;;;3.38;1.70;;;;;;;14.53;48.55;101819.56;5979368;28;20050;-68
2022/04/30 12:08:29;;;;;;;4.47;1.53;;;;;;;14.59;46.14;101818.97;5979240;28;20401;-67
2022/04/30 12:11:26;;;;;;;6.03;1.90;;;;;;;14.93;46.04;101816.59;5983386;28;20479;-66
2022/04/30 12:14:21;;;;;;;4.63;1.70;;;;;;;15.05;47.15;101804.75;5986388;28;20043;-67
2022/04/30 12:17:17;;;;;;;4.88;1.67;;;;;;;15.20;45.52;101813.09;5979110;28;20042;-67
2022/04/30 12:27:04;;;;;;;5.07;1.83;;;;;;;15.05;46.81;101799.41;5982631;28;20382;-67
2022/04/30 12:30:14;;;;;;;4.00;1.80;;;;;;;14.86;47.22;101799.50;5978567;28;20501;-67
2022/04/30 12:33:09;;;;;;;4.80;1.77;;;;;;;14.60;47.55;101793.94;5982762;28;20051;-67
2022/04/30 12:36:05;;;;;;;5.33;2.20;;;;;;;14.46;47.28;101796.25;5979000;28;20079;-66
2022/04/30 12:39:00;;;;;;;8.40;2.53;;;;;;;14.21;49.03;101793.16;5979134;28;20039;-65
2022/04/30 12:41:58;;;;;;;5.90;2.00;;;;;;;14.29;48.08;101785.28;5978424;28;20027;-66
2022/04/30 12:44:54;;;;;;;5.20;2.40;;;;;;;13.85;50.96;101790.41;5978442;28;20541;-65
2022/04/30 12:47:49;;;;;;;3.50;1.92;;;;;;;14.06;51.68;101791.94;5978971;28;20090;-66
2022/04/30 12:50:45;;;;;;;5.28;2.17;;;;;;;13.75;51.62;101787.75;5978013;28;20074;-66
2022/04/30 12:53:40;;;;;;;6.80;2.58;;;;;;;13.58;53.41;101793.75;5978969;28;20039;-66
2022/04/30 12:56:35;;;;;;;6.60;2.70;;;;;;;13.47;53.96;101796.56;5981517;28;20035;-65
2022/04/30 12:59:31;;;;;;;7.03;2.67;;;;;;;13.49;54.79;101778.59;5982994;28;20036;-65
2022/04/30 13:02:28;;;;;;;5.67;2.20;;;;;;;13.45;54.17;101794.00;5982242;28;20302;-67
2022/04/30 13:05:23;;;;;;;6.68;2.72;;;;;;;13.96;52.97;101782.25;5980594;28;20078;-66
2022/04/30 13:08:19;;;;;;;7.10;2.63;;;;;;;13.76;53.27;101785.91;5982981;28;20486;-67
2022/04/30 13:14:28;;;;;;;6.90;3.20;;;;;;;13.77;53.51;101775.13;5982727;29;20126;-65
2022/04/30 13:17:23;;;;;;;4.25;2.17;;;;;;;14.06;52.45;101767.94;5981580;29;20372;-66
2022/04/30 13:20:19;;;;;;;9.57;2.53;;;;;;;14.17;51.80;101772.25;5979200;28;20602;-65
2022/04/30 13:23:14;;;;;;;4.75;2.30;;;;;;;14.59;50.19;101765.59;5982739;28;20372;-67
2022/04/30 13:26:11;;;;;;;6.33;2.80;;;;;;;14.86;50.28;101772.78;5982298;28;20106;-67
2022/04/30 13:29:07;;;;;;;7.70;2.60;;;;;;;15.55;49.32;101773.06;5982727;28;20032;-67
2022/04/30 13:32:03;;;;;;;5.25;2.45;;;;;;;15.41;49.33;101769.06;5981927;28;20063;-68
2022/04/30 13:34:58;;;;;;;6.82;2.38;;;;;;;15.02;49.91;101762.28;5982126;28;20031;-68
2022/04/30 13:37:54;;;;;;;4.73;2.60;;;;;;;14.94;48.60;101770.22;5982654;28;20035;-67
2022/04/30 13:40:50;;;;;;;6.95;2.90;;;;;;;14.69;50.79;101760.19;5981358;28;20123;-67
2022/04/30 13:43:45;;;;;;;6.32;2.35;;;;;;;15.30;50.28;101766.59;5982319;28;20035;-66
2022/04/30 13:46:40;;;;;;;5.67;2.57;;;;;;;15.42;48.79;101753.88;5982274;28;20043;-66
2022/04/30 13:49:35;;;;;;;8.65;2.83;;;;;;;15.13;49.24;101750.56;5982011;28;20086;-68
2022/04/30 13:52:32;;;;;;;7.03;2.50;;;;;;;15.44;49.40;101752.72;5980248;28;20090;-67
2022/04/30 13:55:28;;;;;;;8.82;2.60;;;;;;;15.74;47.31;101746.19;5980334;28;20106;-66
2022/04/30 13:58:23;;;;;;;8.33;3.73;;;;;;;14.92;48.40;101748.13;5982030;28;20471;-65
2022/04/30 14:01:18;;;;;;;14.37;4.47;;;;;;;14.67;50.10;101748.84;5981186;28;20743;-67
2022/04/30 14:04:14;;;;;;;6.78;2.63;;;;;;;14.57;50.69;101743.50;5981601;28;20034;-67
2022/04/30 14:07:09;;;;;;;8.95;2.53;;;;;;;15.19;49.01;101748.09;5980884;28;20050;-67
2022/04/30 14:10:06;;;;;;;7.20;2.70;;;;;;;15.29;50.27;101748.06;5979184;28;20130;-68
2022/04/30 14:16:31;;;;;;;6.47;2.92;;;;;;;14.79;50.13;101734.28;5960724;29;20042;-68
2022/04/30 14:19:27;;;;;;;7.83;2.67;;;;;;;14.58;50.55;101741.69;5973039;29;20047;-67
2022/04/30 14:22:22;;;;;;;7.93;2.65;;;;;;;14.56;50.98;101738.34;5980537;28;20286;-68
2022/04/30 14:25:17;;;;;;;5.67;2.53;;;;;;;14.58;51.64;101736.34;5981573;28;20078;-69
2022/04/30 14:28:13;;;;;;;7.67;2.83;;;;;;;14.44;50.92;101726.16;5975927;28;20042;-69
2022/04/30 14:31:08;;;;;;;7.47;2.43;;;;;;;14.37;51.17;101725.91;5979863;28;20062;-69